createdAt,value
2018-09-15T00:00:59.469Z,11.67
2018-09-15T00:03:28.437Z,8.93
2018-09-15T00:05:57.696Z,11.93
2018-09-15T00:08:26.904Z,8.30
2018-09-15T00:10:55.901Z,12.80
2018-09-15T00:13:24.956Z,16.83
2018-09-15T00:15:53.876Z,9.60
2018-09-15T00:18:22.793Z,10.57
2018-09-15T00:20:51.810Z,13.60
2018-09-15T00:23:20.813Z,12.20
2018-09-15T00:25:49.796Z,20.80
2018-09-15T00:28:18.795Z,15.60
2018-09-15T00:30:47.773Z,22.50
2018-09-15T00:33:17.566Z,22.07
2018-09-15T00:35:46.585Z,24.47
2018-09-15T00:38:15.756Z,28.43
2018-09-15T00:40:44.683Z,31.60
2018-09-15T00:43:13.901Z,24.87
2018-09-15T00:45:42.971Z,32.63
2018-09-15T00:48:11.915Z,34.63
2018-09-15T00:50:41.899Z,35.63
2018-09-15T00:53:10.844Z,28.83
2018-09-15T00:55:39.976Z,30.57
2018-09-15T00:58:08.976Z,21.40
2018-09-15T01:00:38.004Z,21.00
2018-09-15T01:03:07.265Z,15.97
2018-09-15T01:05:36.273Z,15.40
2018-09-15T01:08:05.304Z,13.67
2018-09-15T01:10:34.336Z,16.87
2018-09-15T01:13:03.496Z,16.03
2018-09-15T01:15:32.696Z,13.10
2018-09-15T01:18:02.517Z,12.00
2018-09-15T01:20:31.588Z,15.53
2018-09-15T01:23:00.612Z,12.17
2018-09-15T01:25:29.767Z,13.63
2018-09-15T01:27:58.748Z,13.07
2018-09-15T01:30:28.186Z,13.23
2018-09-15T01:32:57.186Z,18.67
2018-09-15T01:35:26.186Z,22.10
2018-09-15T01:37:55.150Z,24.83
2018-09-15T01:40:24.085Z,19.97
2018-09-15T01:42:53.101Z,25.17
2018-09-15T01:45:22.064Z,21.50
2018-09-15T01:47:51.473Z,23.57
2018-09-15T01:50:20.527Z,20.80
2018-09-15T01:52:50.137Z,21.80
2018-09-15T01:55:19.060Z,19.07
2018-09-15T01:57:48.341Z,16.97
2018-09-15T02:00:17.372Z,19.47
2018-09-15T02:02:46.522Z,11.20
2018-09-15T02:05:15.421Z,11.90
2018-09-15T02:07:44.496Z,20.77
2018-09-15T02:10:13.553Z,16.70
2018-09-15T02:12:42.558Z,10.87
2018-09-15T02:15:11.551Z,11.53
2018-09-15T02:17:40.497Z,14.33
2018-09-15T02:20:09.456Z,11.23
2018-09-15T02:22:38.457Z,10.50
2018-09-15T02:25:07.476Z,13.13
2018-09-15T02:27:36.524Z,13.03
2018-09-15T02:30:05.583Z,16.07
2018-09-15T02:32:34.555Z,17.47
2018-09-15T02:35:03.538Z,14.53
2018-09-15T02:37:32.673Z,14.37
2018-09-15T02:40:02.178Z,9.57
2018-09-15T02:42:31.125Z,8.83
2018-09-15T02:45:00.133Z,9.47
2018-09-15T02:47:29.079Z,9.67
2018-09-15T02:49:58.050Z,9.67
2018-09-15T02:52:26.958Z,13.53
2018-09-15T02:54:56.106Z,10.60
2018-09-15T02:57:25.042Z,9.63
2018-09-15T02:59:54.096Z,11.80
2018-09-15T03:02:23.138Z,13.97
2018-09-15T03:04:52.072Z,13.23
2018-09-15T03:07:20.956Z,10.43
2018-09-15T03:09:49.888Z,11.23
2018-09-15T03:12:19.047Z,9.47
2018-09-15T03:14:48.040Z,9.10
2018-09-15T03:17:16.939Z,7.60
2018-09-15T03:19:46.032Z,10.13
2018-09-15T03:22:15.050Z,11.23
2018-09-15T03:24:43.977Z,12.60
2018-09-15T03:27:12.964Z,11.67
2018-09-15T03:29:41.964Z,12.83
2018-09-15T03:32:11.363Z,12.37
2018-09-15T03:34:40.395Z,14.20
2018-09-15T03:37:09.351Z,13.50
2018-09-15T03:39:38.533Z,11.87
2018-09-15T03:42:08.486Z,9.33
2018-09-15T03:44:37.882Z,13.93
2018-09-15T03:47:06.837Z,12.00
2018-09-15T03:49:35.778Z,11.37
2018-09-15T03:52:05.336Z,15.23
2018-09-15T03:54:34.412Z,14.93
2018-09-15T03:57:03.386Z,11.67
2018-09-15T03:59:32.417Z,11.67
2018-09-15T04:02:02.621Z,15.17
2018-09-15T04:04:31.755Z,13.60
2018-09-15T04:07:00.737Z,12.63
2018-09-15T04:09:29.665Z,12.50
2018-09-15T04:12:02.900Z,10.30
2018-09-15T04:14:31.824Z,12.67
2018-09-15T04:17:00.831Z,11.67
2018-09-15T04:19:29.804Z,14.80
2018-09-15T04:21:58.831Z,17.43
2018-09-15T04:24:27.717Z,18.57
2018-09-15T04:26:56.758Z,19.93
2018-09-15T04:29:25.717Z,15.87
2018-09-15T04:31:54.695Z,13.50
2018-09-15T04:34:23.642Z,17.20
2018-09-15T04:36:52.693Z,20.93
2018-09-15T04:39:21.649Z,13.73
2018-09-15T04:41:50.665Z,13.80
2018-09-15T04:44:19.663Z,12.50
2018-09-15T04:46:48.785Z,16.43
2018-09-15T04:49:17.740Z,15.57
2018-09-15T04:51:46.847Z,14.47
2018-09-15T04:54:15.822Z,17.83
2018-09-15T04:56:44.814Z,13.90
2018-09-15T04:59:13.990Z,12.43
2018-09-15T05:01:42.978Z,13.33
2018-09-15T05:04:11.960Z,12.10
2018-09-15T05:06:40.986Z,12.70
2018-09-15T05:09:11.802Z,14.03
2018-09-15T05:11:40.757Z,13.00
2018-09-15T05:14:09.740Z,10.57
2018-09-15T05:16:38.693Z,12.10
2018-09-15T05:19:07.638Z,14.77
2018-09-15T05:21:36.597Z,7.00
2018-09-15T05:24:05.875Z,10.33
2018-09-15T05:26:34.876Z,19.60
2018-09-15T05:29:03.940Z,13.67
2018-09-15T05:31:33.944Z,11.63
2018-09-15T05:34:02.865Z,11.87
2018-09-15T05:36:31.864Z,14.47
2018-09-15T05:39:00.999Z,13.47
2018-09-15T05:41:29.892Z,15.87
2018-09-15T05:43:58.979Z,14.03
2018-09-15T05:46:27.914Z,16.23
2018-09-15T05:48:56.906Z,12.90
2018-09-15T05:51:26.486Z,11.60
2018-09-15T05:53:55.353Z,14.23
2018-09-15T05:56:24.391Z,11.10
2018-09-15T05:58:53.335Z,11.50
2018-09-15T06:01:22.500Z,11.57
2018-09-15T06:03:51.448Z,14.37
2018-09-15T06:06:20.414Z,15.10
2018-09-15T06:08:49.324Z,11.03
2018-09-15T06:11:18.396Z,13.57
2018-09-15T06:13:47.802Z,19.70
2018-09-15T06:16:16.648Z,12.17
2018-09-15T06:18:45.555Z,17.23
2018-09-15T06:21:14.475Z,12.53
2018-09-15T06:23:43.371Z,9.47
2018-09-15T06:26:13.360Z,11.47
2018-09-15T06:28:42.855Z,12.90
2018-09-15T06:31:12.192Z,15.20
2018-09-15T06:33:41.204Z,22.10
2018-09-15T06:36:10.341Z,13.43
2018-09-15T06:38:39.425Z,10.03
2018-09-15T06:41:08.676Z,14.90
2018-09-15T06:43:37.859Z,9.47
2018-09-15T06:46:07.778Z,12.27
2018-09-15T06:48:36.836Z,8.00
2018-09-15T06:51:05.996Z,9.10
2018-09-15T06:53:35.874Z,13.73
2018-09-15T06:56:04.894Z,14.87
2018-09-15T06:58:34.073Z,10.50
2018-09-15T07:01:04.437Z,5.40
2018-09-15T07:03:35.729Z,7.57
2018-09-15T07:06:04.804Z,8.97
2018-09-15T07:08:34.166Z,11.30
2018-09-15T07:11:04.319Z,11.17
2018-09-15T07:13:33.505Z,7.63
2018-09-15T07:16:03.038Z,12.83
2018-09-15T07:18:32.181Z,13.23
2018-09-15T07:21:01.370Z,8.33
2018-09-15T07:23:30.525Z,11.37
2018-09-15T07:26:00.204Z,12.33
2018-09-15T07:28:30.454Z,6.83
2018-09-15T07:30:59.941Z,13.53
2018-09-15T07:33:29.510Z,18.00
2018-09-15T07:35:58.807Z,9.37
2018-09-15T07:38:28.592Z,13.20
2018-09-15T07:40:58.108Z,7.60
2018-09-15T07:43:27.308Z,9.67
2018-09-15T07:45:56.705Z,14.50
2018-09-15T07:48:26.040Z,10.87
2018-09-15T07:50:55.818Z,10.73
2018-09-15T07:53:26.510Z,9.47
2018-09-15T07:55:55.798Z,10.97
2018-09-15T07:58:24.893Z,10.90
2018-09-15T08:00:54.354Z,5.00
2018-09-15T08:03:26.396Z,7.40
2018-09-15T08:05:56.888Z,8.90
2018-09-15T08:08:26.376Z,7.73
2018-09-15T08:10:55.438Z,10.53
2018-09-15T08:13:28.221Z,9.73
2018-09-15T08:15:57.384Z,8.97
2018-09-15T08:18:26.406Z,9.70
2018-09-15T08:20:55.383Z,7.50
2018-09-15T08:23:24.463Z,15.97
2018-09-15T08:25:53.566Z,8.33
2018-09-15T08:28:22.499Z,9.20
2018-09-15T08:30:51.550Z,6.63
2018-09-15T08:33:20.803Z,11.50
2018-09-15T08:35:50.798Z,9.17
2018-09-15T08:38:19.761Z,6.33
2018-09-15T08:40:48.795Z,7.07
2018-09-15T08:43:17.807Z,7.87
